Time;durP1;ratioP1;P1;durP2;ratioP2;P2;SDS_P1;SDS_P2;PMS_P1;PMS_P2;Temp;Humidity;BMP_temperature;BMP_pressure;BME280_temperature;BME280_humidity;BME280_pressure;Samples;Min_cycle;Max_cycle;Signal;HPM_P1;HPM_P2
2023/11/07 00:01:37;;;;;;;1.83;1.40;;;7.40;99.90;;;;;;450158;264;28724;-73
2023/11/07 00:03:38;;;;;;;1.50;1.40;;;7.40;99.90;;;;;;450337;261;28654;-71
2023/11/07 00:05:39;;;;;;;5.12;2.25;;;7.40;99.90;;;;;;450323;261;28484;-72
2023/11/07 00:07:40;;;;;;;3.37;1.40;;;7.40;99.90;;;;;;450298;261;27562;-71
2023/11/07 00:09:42;;;;;;;1.97;1.50;;;7.40;99.90;;;;;;450314;261;27997;-72
2023/11/07 00:11:43;;;;;;;3.73;1.70;;;7.30;99.90;;;;;;450341;261;28085;-74
2023/11/07 00:13:44;;;;;;;2.13;1.70;;;7.30;99.90;;;;;;450315;261;27744;-72
2023/11/07 00:15:45;;;;;;;1.73;1.20;;;7.30;99.90;;;;;;450308;261;27890;-72
2023/11/07 00:17:48;;;;;;;1.40;1.30;;;7.20;99.90;;;;;;450387;261;27458;-71
2023/11/07 00:19:48;;;;;;;4.03;1.30;;;7.20;99.90;;;;;;450275;261;27500;-71
2023/11/07 00:21:49;;;;;;;6.10;1.60;;;7.20;99.90;;;;;;450319;261;28536;-71
2023/11/07 00:23:50;;;;;;;1.97;1.20;;;7.20;99.90;;;;;;450297;261;29364;-72
2023/11/07 00:25:55;;;;;;;2.10;1.58;;;7.20;99.90;;;;;;450345;261;28494;-72
2023/11/07 00:27:53;;;;;;;3.50;1.30;;;7.20;99.90;;;;;;449932;264;28056;-72
2023/11/07 00:29:54;;;;;;;2.90;1.50;;;7.20;99.90;;;;;;450311;261;28855;-71
2023/11/07 00:31:55;;;;;;;4.22;1.65;;;7.20;99.90;;;;;;450328;261;27601;-72
2023/11/07 00:33:57;;;;;;;2.25;1.30;;;7.10;99.90;;;;;;450341;261;27473;-71
2023/11/07 00:35:58;;;;;;;4.77;1.70;;;7.10;99.90;;;;;;450304;261;27515;-72
2023/11/07 00:37:59;;;;;;;3.67;1.90;;;7.10;99.90;;;;;;450431;261;28297;-72
2023/11/07 00:40:01;;;;;;;3.73;1.70;;;7.20;99.90;;;;;;450322;261;28313;-72
2023/11/07 00:42:02;;;;;;;3.70;1.98;;;7.20;99.90;;;;;;450371;261;28061;-71
2023/11/07 00:44:03;;;;;;;3.90;2.47;;;7.20;99.90;;;;;;450370;261;28025;-71
2023/11/07 00:46:04;;;;;;;5.00;3.80;;;7.20;99.90;;;;;;450378;261;29343;-72
2023/11/07 00:48:06;;;;;;;5.87;2.50;;;7.30;99.90;;;;;;450390;261;29381;-73
2023/11/07 00:50:10;;;;;;;8.30;6.82;;;7.30;99.90;;;;;;450284;261;28851;-71
2023/11/07 00:52:09;;;;;;;2.93;2.73;;;7.30;99.90;;;;;;450059;264;27622;-72
2023/11/07 00:54:11;;;;;;;2.10;1.97;;;7.40;99.90;;;;;;450194;264;28930;-72
2023/11/07 00:56:11;;;;;;;4.63;2.53;;;7.40;99.90;;;;;;450137;264;27862;-72
2023/11/07 00:58:12;;;;;;;3.67;2.40;;;7.40;99.90;;;;;;450318;261;28352;-73
2023/11/07 01:00:13;;;;;;;3.50;1.63;;;7.50;99.90;;;;;;450322;261;28421;-71
2023/11/07 01:02:14;;;;;;;3.80;1.53;;;7.50;99.90;;;;;;450313;261;28079;-72
2023/11/07 01:04:16;;;;;;;1.87;1.20;;;7.50;99.90;;;;;;450297;261;27991;-72
2023/11/07 01:06:17;;;;;;;2.43;1.40;;;7.50;99.90;;;;;;450310;261;28050;-71
2023/11/07 01:08:19;;;;;;;6.50;1.70;;;7.60;99.90;;;;;;450369;261;28099;-72
2023/11/07 01:10:21;;;;;;;4.97;1.63;;;7.60;99.90;;;;;;450377;261;28073;-72
2023/11/07 01:12:22;;;;;;;2.80;1.50;;;7.60;99.90;;;;;;450400;261;28120;-72
2023/11/07 01:14:24;;;;;;;2.50;1.33;;;7.60;99.90;;;;;;450331;261;27595;-72
2023/11/07 01:16:25;;;;;;;2.57;1.50;;;7.60;99.90;;;;;;450364;261;28492;-72
2023/11/07 01:18:26;;;;;;;1.73;1.40;;;7.60;99.90;;;;;;450360;261;28358;-72
2023/11/07 01:20:27;;;;;;;4.50;1.53;;;7.60;99.90;;;;;;450367;261;27924;-72
2023/11/07 01:22:29;;;;;;;2.00;1.37;;;7.60;99.90;;;;;;450373;261;28581;-72
2023/11/07 01:24:30;;;;;;;2.22;1.42;;;7.70;99.90;;;;;;450322;261;28087;-73
2023/11/07 01:26:31;;;;;;;2.57;1.63;;;7.70;99.90;;;;;;450297;261;27917;-71
2023/11/07 01:28:32;;;;;;;2.80;1.50;;;7.60;99.90;;;;;;450301;261;28465;-72
2023/11/07 01:30:34;;;;;;;3.97;1.50;;;7.60;99.90;;;;;;450290;261;27491;-72
2023/11/07 01:32:36;;;;;;;3.12;1.60;;;7.70;99.90;;;;;;450289;261;27891;-72
2023/11/07 01:34:36;;;;;;;3.03;1.40;;;7.70;99.90;;;;;;450302;264;27500;-72
2023/11/07 01:36:37;;;;;;;2.30;1.63;;;7.70;99.90;;;;;;450442;261;27961;-71
2023/11/07 01:38:39;;;;;;;3.23;1.40;;;7.60;99.90;;;;;;450442;261;28076;-72
2023/11/07 01:40:40;;;;;;;3.87;1.30;;;7.60;99.90;;;;;;450403;261;28168;-72
2023/11/07 01:42:41;;;;;;;1.20;1.20;;;7.70;99.90;;;;;;450422;260;27924;-72
2023/11/07 01:44:42;;;;;;;2.83;1.40;;;7.60;99.90;;;;;;450291;264;27962;-71
2023/11/07 01:46:44;;;;;;;2.37;1.47;;;7.60;99.90;;;;;;450391;261;27855;-72
2023/11/07 01:48:45;;;;;;;3.40;1.77;;;7.60;99.90;;;;;;450383;261;28335;-72
2023/11/07 01:50:46;;;;;;;3.23;1.60;;;7.60;99.90;;;;;;450448;261;27962;-72
2023/11/07 01:52:47;;;;;;;3.73;1.70;;;7.50;99.90;;;;;;450397;264;28012;-72
2023/11/07 01:54:51;;;;;;;2.73;1.20;;;7.60;99.90;;;;;;450407;261;28333;-72
2023/11/07 01:56:50;;;;;;;3.50;1.37;;;7.60;99.90;;;;;;450209;263;28288;-72
2023/11/07 01:58:51;;;;;;;4.07;1.43;;;7.60;99.90;;;;;;450402;261;29029;-72
2023/11/07 02:00:56;;;;;;;2.80;1.50;;;7.60;99.90;;;;;;450434;261;28457;-72
2023/11/07 02:02:54;;;;;;;3.37;1.70;;;7.70;99.90;;;;;;449947;264;28364;-71
2023/11/07 02:04:56;;;;;;;2.10;1.50;;;7.60;99.90;;;;;;450410;261;28038;-72
2023/11/07 02:06:56;;;;;;;4.27;1.70;;;7.70;99.90;;;;;;450249;264;27841;-72
2023/11/07 02:08:57;;;;;;;2.90;1.33;;;7.70;99.90;;;;;;450351;261;27828;-71
2023/11/07 02:10:59;;;;;;;3.00;1.90;;;7.70;99.90;;;;;;450467;261;28016;-73
2023/11/07 02:13:00;;;;;;;2.33;1.40;;;7.70;99.90;;;;;;450413;261;28186;-72
2023/11/07 02:15:01;;;;;;;3.10;1.67;;;7.70;99.90;;;;;;450399;261;28343;-72
2023/11/07 02:17:02;;;;;;;2.80;1.30;;;7.70;99.90;;;;;;450427;261;28269;-72
2023/11/07 02:19:04;;;;;;;6.90;1.70;;;7.70;99.90;;;;;;450310;261;28026;-72
2023/11/07 02:21:05;;;;;;;1.60;1.30;;;7.70;99.90;;;;;;450371;261;28194;-73
2023/11/07 02:23:06;;;;;;;3.07;2.03;;;7.70;99.90;;;;;;450360;261;27971;-72
2023/11/07 02:25:08;;;;;;;2.87;1.27;;;7.80;99.90;;;;;;450344;261;28063;-71
2023/11/07 02:27:09;;;;;;;1.50;1.40;;;7.80;99.90;;;;;;450328;261;27968;-72
2023/11/07 02:29:10;;;;;;;1.77;1.40;;;7.80;99.90;;;;;;450416;261;28149;-71
2023/11/07 02:31:11;;;;;;;4.57;1.77;;;7.80;99.90;;;;;;450337;261;28008;-72
2023/11/07 02:33:14;;;;;;;1.70;1.30;;;7.80;99.90;;;;;;450410;261;28161;-71
2023/11/07 02:35:14;;;;;;;2.10;1.47;;;7.80;99.90;;;;;;450241;264;28443;-71
2023/11/07 02:37:17;;;;;;;4.87;1.53;;;7.80;99.90;;;;;;450374;261;28709;-73
2023/11/07 02:39:18;;;;;;;4.27;1.40;;;7.80;99.90;;;;;;450331;256;27969;-72
2023/11/07 02:41:20;;;;;;;3.50;1.90;;;7.90;99.90;;;;;;450325;261;28006;-73
2023/11/07 02:43:20;;;;;;;4.27;1.63;;;7.80;99.90;;;;;;450365;261;28063;-72
2023/11/07 02:45:22;;;;;;;3.60;1.70;;;7.80;99.90;;;;;;450326;261;28543;-71
2023/11/07 02:47:23;;;;;;;2.07;1.67;;;7.80;99.90;;;;;;450303;261;28177;-71
2023/11/07 02:49:24;;;;;;;7.00;1.50;;;7.90;99.90;;;;;;450354;261;28427;-72
2023/11/07 02:51:26;;;;;;;2.70;1.40;;;7.90;99.90;;;;;;450340;261;28094;-72
2023/11/07 02:53:27;;;;;;;2.53;1.40;;;7.90;99.90;;;;;;450397;261;28851;-72
2023/11/07 02:55:28;;;;;;;3.60;1.70;;;7.90;99.90;;;;;;450423;261;28036;-72
2023/11/07 02:57:29;;;;;;;4.80;1.77;;;7.80;99.90;;;;;;450349;261;28089;-71
2023/11/07 02:59:30;;;;;;;4.17;1.60;;;7.90;99.90;;;;;;450335;261;28081;-72
2023/11/07 03:01:32;;;;;;;2.60;1.57;;;7.90;99.90;;;;;;450367;261;27880;-72
2023/11/07 03:03:33;;;;;;;2.73;1.60;;;7.90;99.90;;;;;;450413;261;27956;-72
2023/11/07 03:05:35;;;;;;;1.27;1.17;;;7.90;99.90;;;;;;450387;261;27505;-72
2023/11/07 03:07:36;;;;;;;8.83;8.03;;;7.80;99.90;;;;;;450318;264;27758;-73
2023/11/07 03:09:37;;;;;;;8.33;4.13;;;7.90;99.90;;;;;;450420;261;28107;-71
2023/11/07 03:11:38;;;;;;;6.73;2.17;;;7.80;99.90;;;;;;450436;261;27528;-72
2023/11/07 03:13:39;;;;;;;9.60;5.30;;;7.80;99.90;;;;;;450397;261;28226;-72
2023/11/07 03:15:40;;;;;;;7.03;6.43;;;7.90;99.90;;;;;;450406;261;28080;-71
2023/11/07 03:17:42;;;;;;;3.83;2.83;;;7.90;99.90;;;;;;450401;261;28023;-72
2023/11/07 03:19:43;;;;;;;5.10;2.00;;;7.80;99.90;;;;;;450399;261;27939;-72
2023/11/07 03:21:44;;;;;;;3.10;1.70;;;7.90;99.90;;;;;;450346;261;28376;-72
2023/11/07 03:23:45;;;;;;;4.07;2.40;;;7.80;99.90;;;;;;450380;261;28536;-72
2023/11/07 03:25:47;;;;;;;2.80;2.23;;;7.80;99.90;;;;;;450361;261;28402;-71
2023/11/07 03:27:48;;;;;;;5.33;3.20;;;7.90;99.90;;;;;;450393;261;28482;-72
2023/11/07 03:29:49;;;;;;;5.00;3.37;;;7.90;99.90;;;;;;450373;261;28561;-73
2023/11/07 03:31:52;;;;;;;4.80;2.37;;;7.90;99.90;;;;;;450368;261;28019;-72
2023/11/07 03:33:52;;;;;;;4.37;2.00;;;7.80;99.90;;;;;;450227;264;27874;-73
2023/11/07 03:35:53;;;;;;;4.07;2.10;;;7.80;99.90;;;;;;450329;261;27822;-72
2023/11/07 03:37:54;;;;;;;4.47;3.37;;;7.90;99.90;;;;;;450319;261;28123;-72
2023/11/07 03:39:57;;;;;;;2.93;2.50;;;7.80;99.90;;;;;;450344;261;28072;-72
2023/11/07 03:41:57;;;;;;;5.17;4.27;;;7.80;99.90;;;;;;450261;264;27948;-71
2023/11/07 03:43:58;;;;;;;4.77;3.83;;;7.80;99.90;;;;;;450344;261;28224;-72
2023/11/07 03:45:59;;;;;;;4.23;2.50;;;7.80;99.90;;;;;;450318;261;28514;-71
2023/11/07 03:48:00;;;;;;;5.57;2.67;;;7.80;99.90;;;;;;450210;261;27633;-72
2023/11/07 03:50:02;;;;;;;7.27;2.27;;;7.80;99.90;;;;;;450333;261;27958;-72
2023/11/07 03:52:03;;;;;;;3.50;2.20;;;7.70;99.90;;;;;;450286;264;28080;-72
2023/11/07 03:54:04;;;;;;;3.40;2.73;;;7.70;99.90;;;;;;450340;261;28110;-72
2023/11/07 03:56:05;;;;;;;3.00;2.20;;;7.70;99.90;;;;;;450334;261;27846;-72
2023/11/07 03:58:07;;;;;;;5.63;1.97;;;7.70;99.90;;;;;;450285;256;27702;-72
2023/11/07 04:00:11;;;;;;;3.10;2.80;;;7.70;99.90;;;;;;450262;261;29051;-72
2023/11/07 04:02:12;;;;;;;7.00;3.47;;;7.70;99.90;;;;;;450312;260;28070;-72
2023/11/07 04:04:13;;;;;;;4.00;2.23;;;7.70;99.90;;;;;;450377;261;27921;-72
2023/11/07 04:06:15;;;;;;;6.20;2.30;;;7.70;99.90;;;;;;450306;261;27668;-72
2023/11/07 04:08:16;;;;;;;2.53;1.70;;;7.70;99.90;;;;;;450304;261;28126;-72
2023/11/07 04:10:17;;;;;;;2.17;1.60;;;7.70;99.90;;;;;;450321;261;27972;-72
2023/11/07 04:12:18;;;;;;;2.87;1.63;;;7.70;99.90;;;;;;450320;261;28021;-72
2023/11/07 04:14:21;;;;;;;2.47;1.70;;;7.70;99.90;;;;;;450303;261;28698;-72
2023/11/07 04:16:21;;;;;;;4.67;1.43;;;7.70;99.90;;;;;;450238;264;28482;-72
2023/11/07 04:18:23;;;;;;;3.40;2.00;;;7.70;99.90;;;;;;450299;261;28666;-72
2023/11/07 04:20:24;;;;;;;3.63;1.50;;;7.70;99.90;;;;;;450334;261;27956;-72
2023/11/07 04:22:25;;;;;;;5.20;1.70;;;7.70;99.90;;;;;;450305;261;28487;-73
2023/11/07 04:24:27;;;;;;;2.00;1.60;;;7.70;99.90;;;;;;450302;261;27965;-72
2023/11/07 04:26:28;;;;;;;3.23;2.03;;;7.70;99.90;;;;;;450291;261;27511;-72
2023/11/07 04:28:28;;;;;;;4.27;1.63;;;7.70;99.90;;;;;;450339;261;27617;-72
2023/11/07 04:30:30;;;;;;;5.77;1.83;;;7.70;99.90;;;;;;450402;261;27963;-72
2023/11/07 04:32:34;;;;;;;3.40;1.50;;;7.70;99.90;;;;;;450321;261;28087;-72
2023/11/07 04:34:32;;;;;;;1.90;1.37;;;7.70;99.90;;;;;;450226;264;27711;-72
2023/11/07 04:36:34;;;;;;;2.60;1.40;;;7.70;99.90;;;;;;450384;261;28037;-72
2023/11/07 04:38:35;;;;;;;6.00;1.80;;;7.70;99.90;;;;;;450380;261;28063;-72
2023/11/07 04:40:36;;;;;;;3.63;1.60;;;7.70;99.90;;;;;;450381;261;27885;-71
2023/11/07 04:42:37;;;;;;;3.27;1.80;;;7.60;99.90;;;;;;450361;261;27997;-72
2023/11/07 04:44:39;;;;;;;2.43;1.60;;;7.60;99.90;;;;;;450367;261;27931;-71
2023/11/07 04:46:40;;;;;;;3.50;1.57;;;7.70;99.90;;;;;;450300;264;28066;-72
2023/11/07 04:48:41;;;;;;;3.27;1.47;;;7.70;99.90;;;;;;450351;261;27622;-72
2023/11/07 04:50:44;;;;;;;2.10;1.73;;;7.60;99.90;;;;;;450374;261;27832;-72
2023/11/07 04:52:43;;;;;;;3.80;1.77;;;7.70;99.90;;;;;;450344;261;28457;-72
2023/11/07 04:54:45;;;;;;;1.70;1.53;;;7.60;99.90;;;;;;450388;261;28953;-72
2023/11/07 04:56:46;;;;;;;5.80;2.33;;;7.70;99.90;;;;;;450270;261;28406;-72
2023/11/07 04:58:47;;;;;;;7.57;2.00;;;7.60;99.90;;;;;;450296;261;28503;-73
2023/11/07 05:00:48;;;;;;;3.43;2.10;;;7.60;99.90;;;;;;450299;261;28291;-71
2023/11/07 05:02:50;;;;;;;8.67;1.60;;;7.60;99.90;;;;;;450314;261;28338;-71
2023/11/07 05:04:51;;;;;;;5.23;1.53;;;7.60;99.90;;;;;;450375;261;28016;-72
2023/11/07 05:06:53;;;;;;;3.93;1.37;;;7.60;99.90;;;;;;450371;261;28851;-72
2023/11/07 05:08:53;;;;;;;2.70;2.20;;;7.60;99.90;;;;;;450263;264;28068;-72
2023/11/07 05:10:55;;;;;;;4.90;4.43;;;7.60;99.90;;;;;;450325;256;28021;-72
2023/11/07 05:12:56;;;;;;;5.43;1.60;;;7.60;99.90;;;;;;450329;261;28719;-72
2023/11/07 05:14:57;;;;;;;2.67;1.80;;;7.60;99.90;;;;;;450423;261;28303;-73
2023/11/07 05:16:58;;;;;;;3.03;1.63;;;7.50;99.90;;;;;;450382;261;28426;-72
2023/11/07 05:19:00;;;;;;;1.80;1.70;;;7.60;99.90;;;;;;450414;261;27963;-72
2023/11/07 05:21:01;;;;;;;4.40;1.70;;;7.50;99.90;;;;;;450359;261;27571;-72
2023/11/07 05:23:02;;;;;;;2.83;1.47;;;7.60;99.90;;;;;;450386;261;27969;-71
2023/11/07 05:25:05;;;;;;;4.93;1.80;;;7.60;99.90;;;;;;450388;261;28081;-73
2023/11/07 05:27:05;;;;;;;2.07;1.80;;;7.60;99.90;;;;;;450137;260;28000;-72
2023/11/07 05:29:06;;;;;;;3.47;1.47;;;7.50;99.90;;;;;;450292;261;28530;-72
2023/11/07 05:31:07;;;;;;;2.10;1.37;;;7.60;99.90;;;;;;450342;261;28522;-72
2023/11/07 05:33:09;;;;;;;2.23;1.33;;;7.60;99.90;;;;;;450334;261;28293;-72
2023/11/07 05:35:10;;;;;;;3.40;1.40;;;7.60;99.90;;;;;;450168;264;28144;-72
2023/11/07 05:37:11;;;;;;;1.30;1.20;;;7.50;99.90;;;;;;450263;261;28079;-71
2023/11/07 05:39:12;;;;;;;3.20;1.40;;;7.60;99.90;;;;;;450251;261;28046;-72
2023/11/07 05:41:14;;;;;;;5.32;1.60;;;7.60;99.90;;;;;;450303;261;28020;-72
2023/11/07 05:43:15;;;;;;;7.20;3.60;;;7.60;99.90;;;;;;450334;261;27464;-72
2023/11/07 05:45:17;;;;;;;6.70;2.17;;;7.60;99.90;;;;;;450328;261;27878;-72
2023/11/07 05:47:17;;;;;;;2.77;2.57;;;7.60;99.90;;;;;;450344;261;27570;-72
2023/11/07 05:49:18;;;;;;;2.50;1.80;;;7.60;99.90;;;;;;450369;261;28064;-72
2023/11/07 05:51:20;;;;;;;3.17;2.00;;;7.60;99.90;;;;;;450302;261;28202;-72
2023/11/07 05:53:21;;;;;;;3.03;1.43;;;7.60;99.90;;;;;;450354;261;28038;-72
2023/11/07 05:55:22;;;;;;;3.93;1.90;;;7.50;99.90;;;;;;450362;261;28120;-72
2023/11/07 05:57:23;;;;;;;1.53;1.10;;;7.50;99.90;;;;;;450372;261;27843;-72
2023/11/07 05:59:25;;;;;;;4.00;1.53;;;7.50;99.90;;;;;;450333;261;27956;-72
2023/11/07 06:01:26;;;;;;;2.47;1.40;;;7.50;99.90;;;;;;450386;261;28055;-72
2023/11/07 06:03:27;;;;;;;2.93;1.40;;;7.50;99.90;;;;;;450360;261;28486;-72
2023/11/07 06:05:28;;;;;;;1.83;1.30;;;7.50;99.90;;;;;;450374;261;28580;-72
2023/11/07 06:07:30;;;;;;;4.40;1.70;;;7.50;99.90;;;;;;450414;261;29408;-72
2023/11/07 06:09:31;;;;;;;2.50;1.30;;;7.50;99.90;;;;;;450317;261;28622;-72
2023/11/07 06:11:32;;;;;;;2.90;1.97;;;7.50;99.90;;;;;;450312;261;28330;-71
2023/11/07 06:13:33;;;;;;;2.37;1.50;;;7.50;99.90;;;;;;450340;261;27958;-71
2023/11/07 06:15:35;;;;;;;4.07;1.40;;;7.50;99.90;;;;;;450326;261;28524;-72
2023/11/07 06:17:36;;;;;;;5.50;1.50;;;7.60;99.90;;;;;;450416;261;27606;-72
2023/11/07 06:19:37;;;;;;;1.90;1.33;;;7.60;99.90;;;;;;450405;261;27554;-72
2023/11/07 06:21:38;;;;;;;1.87;1.33;;;7.60;99.90;;;;;;450372;261;28075;-72
2023/11/07 06:23:40;;;;;;;1.63;1.50;;;7.50;99.90;;;;;;450394;261;28034;-72
2023/11/07 06:25:42;;;;;;;2.50;1.47;;;7.60;99.90;;;;;;450389;261;28910;-72
2023/11/07 06:27:42;;;;;;;1.90;1.60;;;7.60;99.90;;;;;;450320;261;27755;-73
2023/11/07 06:29:43;;;;;;;5.23;2.90;;;7.60;99.90;;;;;;450292;261;28008;-72
2023/11/07 06:31:45;;;;;;;7.50;2.10;;;7.60;99.90;;;;;;450343;261;27960;-71
2023/11/07 06:33:46;;;;;;;2.50;1.40;;;7.60;99.90;;;;;;450300;261;28988;-71
2023/11/07 06:35:49;;;;;;;1.90;1.40;;;7.60;99.90;;;;;;450305;261;28027;-73
2023/11/07 06:37:48;;;;;;;1.57;1.47;;;7.60;99.90;;;;;;450242;264;28065;-72
2023/11/07 06:39:50;;;;;;;3.20;1.90;;;7.60;99.90;;;;;;450338;261;28318;-72
2023/11/07 06:41:53;;;;;;;3.77;1.50;;;7.60;99.90;;;;;;450364;261;28533;-72
2023/11/07 06:43:52;;;;;;;2.77;1.50;;;7.60;99.90;;;;;;450245;263;29245;-73
2023/11/07 06:45:53;;;;;;;2.43;1.40;;;7.60;99.90;;;;;;450402;261;29222;-72
2023/11/07 06:47:55;;;;;;;1.37;1.27;;;7.60;99.90;;;;;;450389;261;28347;-73
2023/11/07 06:49:56;;;;;;;3.53;1.30;;;7.60;99.90;;;;;;450395;261;27970;-71
2023/11/07 06:51:58;;;;;;;2.30;1.20;;;7.60;99.90;;;;;;450387;261;27916;-72
2023/11/07 06:54:00;;;;;;;1.40;1.30;;;7.60;99.90;;;;;;450368;256;28001;-72
2023/11/07 06:56:00;;;;;;;2.63;1.23;;;7.60;99.90;;;;;;450293;261;27924;-72
2023/11/07 06:58:01;;;;;;;1.40;1.30;;;7.60;99.90;;;;;;450350;261;27886;-72
2023/11/07 07:00:06;;;;;;;4.17;1.37;;;7.60;99.90;;;;;;450342;261;27576;-71
2023/11/07 07:02:03;;;;;;;2.33;1.40;;;7.70;99.90;;;;;;450199;264;28004;-73
2023/11/07 07:04:05;;;;;;;1.60;1.20;;;7.70;99.90;;;;;;450329;261;28439;-73
2023/11/07 07:06:06;;;;;;;4.50;1.80;;;7.70;99.90;;;;;;450334;261;27882;-72
2023/11/07 07:08:08;;;;;;;1.30;1.20;;;7.70;99.90;;;;;;450394;256;28091;-72
2023/11/07 07:10:09;;;;;;;1.57;1.30;;;7.70;99.90;;;;;;450372;261;27962;-71
2023/11/07 07:12:10;;;;;;;1.53;1.43;;;7.70;99.90;;;;;;450393;261;27738;-72
2023/11/07 07:14:11;;;;;;;1.33;1.20;;;7.70;99.90;;;;;;450397;261;28144;-72
2023/11/07 07:16:13;;;;;;;2.23;1.60;;;7.70;99.90;;;;;;450309;261;27999;-72
2023/11/07 07:18:18;;;;;;;1.67;1.40;;;7.70;99.90;;;;;;450274;259;28458;-72
2023/11/07 07:20:15;;;;;;;2.83;1.30;;;7.70;99.90;;;;;;450039;264;28575;-72
2023/11/07 07:22:17;;;;;;;1.73;1.33;;;7.70;99.90;;;;;;450297;261;28369;-71
2023/11/07 07:24:21;;;;;;;1.13;1.13;;;7.70;99.90;;;;;;450256;264;28390;-72
2023/11/07 07:26:22;;;;;;;1.60;1.40;;;7.70;99.90;;;;;;450056;264;28131;-72
2023/11/07 07:28:20;;;;;;;7.37;1.80;;;7.70;99.90;;;;;;450101;264;28204;-72
2023/11/07 07:30:21;;;;;;;1.97;1.40;;;7.70;99.90;;;;;;450398;261;27915;-73
2023/11/07 07:32:22;;;;;;;2.40;1.20;;;7.70;99.90;;;;;;450371;261;28007;-72
2023/11/07 07:34:23;;;;;;;4.73;1.70;;;7.80;99.90;;;;;;450310;255;28570;-72
2023/11/07 07:36:25;;;;;;;1.50;1.27;;;7.80;99.90;;;;;;450323;261;28103;-72
2023/11/07 07:38:26;;;;;;;2.67;1.20;;;7.80;99.90;;;;;;450307;261;28218;-71
2023/11/07 07:40:29;;;;;;;2.73;1.30;;;7.80;99.90;;;;;;450314;261;27959;-74
2023/11/07 07:42:28;;;;;;;1.40;1.30;;;7.80;99.90;;;;;;450184;264;27797;-72
2023/11/07 07:44:32;;;;;;;2.67;1.33;;;7.70;99.90;;;;;;450318;261;28114;-72
2023/11/07 07:46:34;;;;;;;1.67;1.20;;;7.70;99.90;;;;;;450226;264;27963;-71
2023/11/07 07:48:32;;;;;;;3.30;1.40;;;7.80;99.90;;;;;;450145;264;28095;-72
2023/11/07 07:50:33;;;;;;;1.87;1.40;;;7.80;99.90;;;;;;450368;261;27783;-72
2023/11/07 07:52:37;;;;;;;2.83;1.10;;;7.70;99.90;;;;;;450324;261;28717;-72
2023/11/07 07:54:37;;;;;;;4.77;1.33;;;7.80;99.90;;;;;;450040;264;27981;-71
2023/11/07 07:56:38;;;;;;;2.37;1.60;;;7.80;99.90;;;;;;450187;264;28763;-72
2023/11/07 07:58:40;;;;;;;4.83;1.40;;;7.80;99.90;;;;;;450287;264;28381;-72
2023/11/07 08:00:43;;;;;;;2.40;1.33;;;7.90;99.90;;;;;;450269;261;28184;-72
2023/11/07 08:02:41;;;;;;;2.90;1.30;;;7.90;99.90;;;;;;450088;264;28386;-71
2023/11/07 08:04:42;;;;;;;1.10;1.10;;;7.90;99.90;;;;;;450323;261;28481;-72
2023/11/07 08:06:43;;;;;;;3.00;1.07;;;7.90;99.90;;;;;;450337;261;28032;-73
2023/11/07 08:08:45;;;;;;;2.80;1.43;;;7.90;99.90;;;;;;450365;261;28072;-72
2023/11/07 08:10:47;;;;;;;1.73;1.37;;;7.90;99.90;;;;;;450329;261;27622;-72
2023/11/07 08:12:49;;;;;;;1.40;1.30;;;7.90;99.90;;;;;;450218;264;27508;-71
2023/11/07 08:14:48;;;;;;;3.03;1.40;;;7.90;99.90;;;;;;450273;263;28040;-72
2023/11/07 08:16:53;;;;;;;2.30;1.33;;;7.90;99.90;;;;;;450347;261;27874;-73
2023/11/07 08:18:54;;;;;;;1.57;1.47;;;7.90;99.90;;;;;;450346;261;28454;-72
2023/11/07 08:20:55;;;;;;;1.37;1.17;;;7.90;99.90;;;;;;450335;261;28391;-72
2023/11/07 08:22:56;;;;;;;1.43;1.30;;;7.90;99.90;;;;;;450347;261;28505;-72
2023/11/07 08:24:58;;;;;;;1.90;1.40;;;7.90;99.90;;;;;;450332;261;28557;-72
2023/11/07 08:26:59;;;;;;;2.73;1.50;;;7.90;99.90;;;;;;450379;261;27740;-72
2023/11/07 08:29:00;;;;;;;3.83;1.30;;;7.90;99.90;;;;;;450412;261;27744;-72
2023/11/07 08:31:01;;;;;;;1.10;1.10;;;7.90;99.90;;;;;;450375;261;27572;-72
2023/11/07 08:33:03;;;;;;;2.37;1.77;;;7.90;99.90;;;;;;450263;264;27763;-71
2023/11/07 08:35:06;;;;;;;1.27;1.17;;;7.90;99.90;;;;;;450398;261;28244;-72
2023/11/07 08:37:05;;;;;;;2.00;1.17;;;7.90;99.90;;;;;;450205;264;27895;-71
2023/11/07 08:39:28;;;;;;;1.53;1.47;;;7.90;99.90;;;;;;450389;261;28020;-73
2023/11/07 08:41:08;;;;;;;1.13;1.10;;;7.90;99.90;;;;;;446497;264;27939;-72
2023/11/07 08:43:09;;;;;;;1.10;1.00;;;7.90;99.90;;;;;;450326;261;27863;-71
2023/11/07 08:45:15;;;;;;;0.90;0.90;;;7.90;99.90;;;;;;450424;261;27986;-72
2023/11/07 08:47:13;;;;;;;1.53;1.20;;;7.90;99.90;;;;;;450073;264;27928;-72
2023/11/07 08:49:13;;;;;;;1.03;0.90;;;7.90;99.90;;;;;;450284;260;27991;-72
2023/11/07 08:51:14;;;;;;;1.17;1.07;;;8.00;99.90;;;;;;450448;261;28169;-72
2023/11/07 08:53:18;;;;;;;3.90;1.20;;;8.00;99.90;;;;;;450333;261;28042;-72
2023/11/07 08:55:16;;;;;;;1.40;1.30;;;8.00;99.90;;;;;;450052;264;27953;-72
2023/11/07 08:57:18;;;;;;;2.90;1.30;;;8.00;99.90;;;;;;450339;261;28416;-72
2023/11/07 08:59:19;;;;;;;2.30;1.30;;;7.90;99.90;;;;;;450346;261;28352;-72
2023/11/07 09:01:21;;;;;;;1.23;1.13;;;8.00;99.90;;;;;;450357;261;28678;-72
2023/11/07 09:03:21;;;;;;;2.00;1.30;;;8.10;99.90;;;;;;450313;264;28432;-72
2023/11/07 09:05:24;;;;;;;1.43;1.30;;;8.10;99.90;;;;;;450352;261;28005;-72
2023/11/07 09:07:24;;;;;;;2.50;1.47;;;8.20;99.90;;;;;;450168;264;27963;-72
2023/11/07 09:09:29;;;;;;;5.97;1.70;;;8.20;99.90;;;;;;450274;261;28121;-71
2023/11/07 09:11:26;;;;;;;1.43;1.20;;;8.20;99.90;;;;;;449988;263;28031;-74
2023/11/07 09:13:28;;;;;;;1.80;1.10;;;8.10;99.90;;;;;;450357;261;28030;-72
2023/11/07 09:15:29;;;;;;;1.37;1.30;;;8.20;99.90;;;;;;450365;261;27953;-72
2023/11/07 09:17:30;;;;;;;1.60;1.27;;;8.20;99.90;;;;;;450346;261;28483;-72
2023/11/07 09:19:31;;;;;;;3.73;1.53;;;8.20;99.90;;;;;;450297;261;27906;-72
2023/11/07 09:21:33;;;;;;;1.30;1.20;;;8.20;99.90;;;;;;450306;261;27978;-72
2023/11/07 09:23:35;;;;;;;1.10;1.00;;;8.20;99.90;;;;;;450313;261;27955;-72
2023/11/07 09:25:35;;;;;;;1.10;1.00;;;8.20;99.90;;;;;;450219;264;27975;-72
2023/11/07 09:27:39;;;;;;;1.40;1.30;;;8.20;99.90;;;;;;450304;261;28088;-72
2023/11/07 09:29:40;;;;;;;1.97;1.77;;;8.20;99.90;;;;;;450302;261;28390;-74
2023/11/07 09:31:42;;;;;;;2.83;1.40;;;8.30;99.90;;;;;;450402;261;27962;-71
2023/11/07 09:33:43;;;;;;;3.33;1.47;;;8.40;99.90;;;;;;450384;261;28168;-72
2023/11/07 09:35:44;;;;;;;2.20;1.20;;;8.40;99.90;;;;;;450272;261;27843;-72
2023/11/07 09:37:46;;;;;;;3.80;1.90;;;8.40;99.90;;;;;;450288;261;28074;-71
2023/11/07 09:39:47;;;;;;;1.87;1.40;;;8.40;99.90;;;;;;450376;261;27884;-74
2023/11/07 09:41:48;;;;;;;1.87;1.50;;;8.40;99.90;;;;;;450391;261;27507;-72
2023/11/07 09:43:49;;;;;;;1.30;1.20;;;8.40;99.90;;;;;;450351;261;27948;-73
2023/11/07 09:45:53;;;;;;;1.53;1.37;;;8.40;99.90;;;;;;450373;261;28376;-72
2023/11/07 09:47:52;;;;;;;2.87;1.20;;;8.60;99.90;;;;;;450163;264;28261;-72
2023/11/07 09:49:55;;;;;;;2.60;1.10;;;8.60;99.90;;;;;;450358;261;28523;-73
2023/11/07 09:51:54;;;;;;;2.93;1.50;;;8.70;99.90;;;;;;450156;264;28130;-72
2023/11/07 09:53:56;;;;;;;1.37;1.27;;;8.60;99.90;;;;;;450308;261;28617;-72
2023/11/07 09:55:57;;;;;;;0.97;0.97;;;8.60;99.90;;;;;;450329;261;28099;-72
2023/11/07 09:57:58;;;;;;;1.80;1.30;;;8.70;99.90;;;;;;450353;261;27946;-72
2023/11/07 10:00:00;;;;;;;1.50;1.40;;;8.70;99.90;;;;;;450390;261;27605;-72
2023/11/07 10:02:01;;;;;;;1.30;1.20;;;8.80;99.90;;;;;;450287;260;27965;-72
2023/11/07 10:04:02;;;;;;;1.47;1.30;;;8.80;99.90;;;;;;450324;264;27996;-72
2023/11/07 10:06:06;;;;;;;1.17;1.10;;;8.70;99.90;;;;;;450324;261;27999;-72
2023/11/07 10:08:04;;;;;;;1.20;1.10;;;8.80;99.90;;;;;;450128;264;27961;-72
2023/11/07 10:10:05;;;;;;;1.10;1.10;;;8.80;99.90;;;;;;450319;261;28066;-73
2023/11/07 10:12:07;;;;;;;1.73;1.00;;;8.80;99.90;;;;;;450396;261;27989;-72
2023/11/07 10:14:08;;;;;;;2.70;1.03;;;8.90;99.90;;;;;;450163;264;27496;-72
2023/11/07 10:16:09;;;;;;;5.20;1.20;;;8.90;99.90;;;;;;450376;261;27994;-73
2023/11/07 10:18:11;;;;;;;2.03;1.00;;;8.80;99.90;;;;;;450347;261;28225;-72
2023/11/07 10:20:13;;;;;;;1.20;1.17;;;8.90;99.90;;;;;;450314;261;27698;-72
2023/11/07 10:22:14;;;;;;;8.13;1.20;;;8.90;99.90;;;;;;450300;261;27909;-72
2023/11/07 10:24:15;;;;;;;1.10;1.00;;;8.90;99.90;;;;;;450333;261;28088;-73
2023/11/07 10:26:17;;;;;;;1.00;1.00;;;8.90;99.90;;;;;;450320;261;28042;-72
2023/11/07 10:28:18;;;;;;;1.20;1.17;;;8.80;99.90;;;;;;449998;264;28473;-73
2023/11/07 10:30:19;;;;;;;1.10;1.00;;;8.80;99.90;;;;;;450313;261;28172;-72
2023/11/07 10:32:20;;;;;;;1.43;1.00;;;8.70;99.90;;;;;;450329;261;28588;-72
2023/11/07 10:34:25;;;;;;;1.00;1.00;;;8.80;99.90;;;;;;450349;261;28610;-74
2023/11/07 10:36:24;;;;;;;1.07;1.07;;;8.80;99.90;;;;;;450120;264;28096;-72
2023/11/07 10:38:26;;;;;;;0.90;0.90;;;8.80;99.90;;;;;;450348;261;27965;-72
2023/11/07 10:40:28;;;;;;;1.20;1.10;;;8.70;99.90;;;;;;450264;261;28042;-72